Time;durP1;ratioP1;P1;durP2;ratioP2;P2;SDS_P1;SDS_P2;PMS_P1;PMS_P2;Temp;Humidity;BMP_temperature;BMP_pressure;BME280_temperature;BME280_humidity;BME280_pressure;Samples;Min_cycle;Max_cycle;Signal;HPM_P1;HPM_P2
2020/12/27 00:02:05;;;;;;;3.30;2.53;;;;;;;6.24;70.14;94618.72;5054004;28;20214;-72
2020/12/27 00:04:30;;;;;;;4.83;3.00;;;;;;;6.17;68.86;94615.78;5054012;28;20569;-73
2020/12/27 00:06:56;;;;;;;6.90;3.30;;;;;;;6.01;70.53;94621.69;5053701;28;20689;-72
2020/12/27 00:09:21;;;;;;;7.40;3.17;;;;;;;5.91;70.90;94624.72;5053974;28;20176;-73
2020/12/27 00:11:47;;;;;;;6.43;3.67;;;;;;;5.98;70.44;94621.53;5053690;28;20172;-72
2020/12/27 00:14:12;;;;;;;7.77;3.70;;;;;;;6.17;70.96;94627.16;5036129;28;20253;-73
2020/12/27 00:16:38;;;;;;;6.67;3.33;;;;;;;6.21;70.71;94622.00;5053442;28;20252;-72
2020/12/27 00:19:04;;;;;;;5.20;3.47;;;;;;;6.15;71.55;94624.06;5053655;28;20175;-72
2020/12/27 00:21:29;;;;;;;8.93;3.60;;;;;;;6.24;70.50;94626.69;5053583;28;20193;-73
2020/12/27 00:23:55;;;;;;;6.60;3.47;;;;;;;6.24;70.68;94624.03;5053717;28;20183;-72
2020/12/27 00:26:20;;;;;;;5.43;2.93;;;;;;;6.31;70.30;94616.31;5053349;28;20250;-72
2020/12/27 00:28:46;;;;;;;4.70;3.00;;;;;;;6.38;70.57;94619.22;5053655;28;20195;-72
2020/12/27 00:31:16;;;;;;;4.97;3.47;;;;;;;6.38;69.63;94616.56;5053548;28;20682;-72
2020/12/27 00:33:41;;;;;;;6.00;3.00;;;;;;;6.25;69.45;94599.06;5053083;28;20187;-73
2020/12/27 00:36:07;;;;;;;6.50;3.93;;;;;;;6.19;70.45;94613.63;5035608;28;20574;-72
2020/12/27 00:38:32;;;;;;;4.07;3.00;;;;;;;6.25;70.41;94599.84;5053172;28;20241;-72
2020/12/27 00:40:58;;;;;;;11.30;3.40;;;;;;;6.16;70.08;94595.69;5053270;28;20255;-73
2020/12/27 00:43:23;;;;;;;5.47;3.57;;;;;;;6.31;70.17;94609.16;5052665;28;20194;-73
2020/12/27 00:45:49;;;;;;;8.30;3.43;;;;;;;6.16;70.32;94591.16;5053296;28;20172;-72
2020/12/27 00:48:14;;;;;;;6.13;4.37;;;;;;;6.33;69.49;94611.47;5052934;28;20176;-73
2020/12/27 00:50:41;;;;;;;5.80;3.40;;;;;;;6.19;70.04;94621.56;5053095;28;20242;-72
2020/12/27 00:53:06;;;;;;;5.67;3.47;;;;;;;6.17;70.46;94619.22;5052934;28;20175;-73
2020/12/27 00:55:32;;;;;;;6.47;3.53;;;;;;;6.09;71.45;94617.41;5053011;28;20584;-72
2020/12/27 00:57:57;;;;;;;7.50;3.60;;;;;;;6.07;71.44;94609.03;5053056;28;20619;-73
2020/12/27 01:00:23;;;;;;;6.80;3.23;;;;;;;6.05;71.36;94611.97;5052817;28;20172;-72
2020/12/27 01:02:48;;;;;;;4.80;3.13;;;;;;;6.11;70.39;94617.84;5053355;28;20574;-73
2020/12/27 01:05:14;;;;;;;4.33;2.90;;;;;;;6.03;71.33;94608.09;5052632;28;20172;-73
2020/12/27 01:07:39;;;;;;;4.13;3.10;;;;;;;6.20;72.39;94605.31;5052796;28;20160;-72
2020/12/27 01:10:05;;;;;;;5.03;3.37;;;;;;;6.13;72.18;94605.06;5052630;28;20199;-73
2020/12/27 01:12:30;;;;;;;5.37;3.67;;;;;;;6.01;73.08;94612.97;5052744;28;20175;-72
2020/12/27 01:14:56;;;;;;;6.07;3.67;;;;;;;6.26;72.95;94596.06;5052449;28;20176;-72
2020/12/27 01:17:24;;;;;;;4.57;3.50;;;;;;;6.10;73.20;94598.53;5052641;28;20231;-73
2020/12/27 01:19:50;;;;;;;5.57;3.90;;;;;;;5.70;73.99;94605.31;5052581;28;20191;-73
2020/12/27 01:22:15;;;;;;;6.33;3.50;;;;;;;5.73;74.35;94597.50;5052348;28;21159;-73
2020/12/27 01:24:41;;;;;;;5.30;3.63;;;;;;;5.86;73.86;94603.66;5052482;28;20592;-73
2020/12/27 01:27:06;;;;;;;3.73;2.93;;;;;;;5.73;74.66;94594.88;5052143;28;20227;-73
2020/12/27 01:29:32;;;;;;;3.80;2.90;;;;;;;5.87;73.75;94594.59;5052484;28;20689;-72
2020/12/27 01:32:01;;;;;;;5.83;3.17;;;;;;;5.78;75.10;94586.72;5034438;28;20225;-73
2020/12/27 01:34:27;;;;;;;5.13;3.37;;;;;;;6.02;74.76;94599.38;5052313;28;20659;-71
2020/12/27 01:36:53;;;;;;;5.70;3.67;;;;;;;6.02;73.54;94595.97;5051946;28;20659;-72
2020/12/27 01:39:18;;;;;;;7.20;3.77;;;;;;;5.99;73.72;94581.47;5052180;28;21171;-72
2020/12/27 01:41:44;;;;;;;3.83;3.17;;;;;;;6.07;71.84;94591.25;5052052;28;20258;-72
2020/12/27 01:44:13;;;;;;;4.53;3.43;;;;;;;6.25;71.92;94581.28;5052149;28;20543;-72
2020/12/27 01:46:41;;;;;;;5.33;3.63;;;;;;;6.41;72.40;94578.81;5052092;28;20186;-72
2020/12/27 01:49:07;;;;;;;6.43;3.83;;;;;;;6.35;72.97;94564.97;5052017;28;20590;-72
2020/12/27 01:51:32;;;;;;;6.33;4.23;;;;;;;6.10;73.89;94577.31;5034128;28;21161;-72
2020/12/27 01:53:58;;;;;;;6.30;3.63;;;;;;;5.82;73.29;94563.78;5051135;28;20225;-72
2020/12/27 01:56:45;;;;;;;5.23;4.03;;;;;;;6.00;74.26;94555.72;5033843;28;20291;-72
2020/12/27 01:59:17;;;;;;;5.27;4.10;;;;;;;6.01;74.26;94557.31;5034116;28;20183;-72
2020/12/27 02:01:44;;;;;;;4.97;3.37;;;;;;;5.99;73.92;94549.66;5033086;28;20696;-73
2020/12/27 02:04:11;;;;;;;7.30;4.00;;;;;;;6.05;72.87;94556.31;5034088;28;20593;-72
2020/12/27 02:06:39;;;;;;;4.00;3.53;;;;;;;5.96;74.36;94563.56;5034389;28;20586;-72
2020/12/27 02:09:05;;;;;;;6.80;3.83;;;;;;;6.01;74.26;94560.72;5051522;28;20680;-72
2020/12/27 02:11:30;;;;;;;9.33;3.40;;;;;;;6.00;73.42;94550.44;5051774;28;20601;-72
2020/12/27 02:13:59;;;;;;;7.10;4.20;;;;;;;6.13;74.05;94538.81;5051405;28;20642;-73
2020/12/27 02:16:28;;;;;;;4.73;3.50;;;;;;;6.13;73.89;94532.72;5051458;28;20213;-72
2020/12/27 02:19:01;;;;;;;6.30;4.33;;;;;;;6.23;73.41;94537.59;5051422;28;20677;-72
2020/12/27 02:21:27;;;;;;;5.77;3.63;;;;;;;6.16;74.06;94538.13;5051636;28;20610;-73
2020/12/27 02:23:59;;;;;;;4.27;3.63;;;;;;;6.41;72.80;94548.88;5051341;28;20593;-73
2020/12/27 02:26:27;;;;;;;5.57;3.57;;;;;;;6.34;72.71;94539.56;5051514;28;20223;-72
2020/12/27 02:28:56;;;;;;;5.40;3.93;;;;;;;6.25;73.61;94535.44;5051259;28;20585;-73
2020/12/27 02:31:23;;;;;;;6.70;3.90;;;;;;;6.21;74.15;94537.94;5051276;28;20574;-73
2020/12/27 02:33:49;;;;;;;4.93;3.53;;;;;;;6.24;74.58;94532.00;5051096;28;20613;-73
2020/12/27 02:36:14;;;;;;;6.93;4.23;;;;;;;6.25;74.83;94520.28;5051289;28;20620;-72
2020/12/27 02:38:40;;;;;;;8.63;3.93;;;;;;;6.41;73.44;94530.31;5051143;28;20214;-72
2020/12/27 02:41:16;;;;;;;9.73;3.87;;;;;;;6.34;73.27;94521.00;5051307;28;20623;-72
2020/12/27 02:43:41;;;;;;;11.57;4.53;;;;;;;6.28;74.10;94513.56;5050990;28;20186;-72
2020/12/27 02:46:27;;;;;;;7.40;3.90;;;;;;;6.13;74.96;94522.91;5051191;28;20598;-72
2020/12/27 02:48:53;;;;;;;7.27;4.07;;;;;;;6.12;74.47;94512.59;5050303;28;20195;-72
2020/12/27 02:51:18;;;;;;;6.47;3.80;;;;;;;6.00;75.93;94518.63;5051214;28;20677;-72
2020/12/27 02:53:50;;;;;;;7.67;4.57;;;;;;;5.84;76.21;94519.19;5050789;28;20248;-72
2020/12/27 02:56:19;;;;;;;6.80;3.80;;;;;;;5.99;74.89;94517.84;5051083;28;20222;-73
2020/12/27 02:58:45;;;;;;;9.43;4.57;;;;;;;6.14;74.36;94513.84;5050760;28;21217;-72
2020/12/27 03:01:10;;;;;;;6.57;4.00;;;;;;;6.26;73.70;94508.59;5051185;28;20610;-72
2020/12/27 03:03:36;;;;;;;6.93;4.63;;;;;;;6.32;74.04;94501.97;5051284;28;20179;-73
2020/12/27 03:06:01;;;;;;;8.37;5.20;;;;;;;6.23;75.04;94505.78;5052315;28;20180;-72
2020/12/27 03:08:27;;;;;;;9.13;4.70;;;;;;;6.33;74.46;94514.13;5055191;28;20207;-72
2020/12/27 03:10:52;;;;;;;7.03;4.67;;;;;;;6.25;74.39;94507.03;5054765;28;20175;-73
2020/12/27 03:13:18;;;;;;;11.47;4.77;;;;;;;6.05;75.56;94500.66;5054987;28;20203;-72
2020/12/27 03:15:44;;;;;;;9.50;5.40;;;;;;;6.00;76.13;94506.16;5020562;28;20258;-72
2020/12/27 03:18:09;;;;;;;8.37;5.40;;;;;;;6.12;75.52;94509.94;5054935;28;20253;-73
2020/12/27 03:20:34;;;;;;;16.33;5.83;;;;;;;5.93;75.28;94503.25;5054662;28;20249;-72
2020/12/27 03:23:00;;;;;;;10.43;5.90;;;;;;;6.07;75.83;94501.13;5054835;28;20203;-72
2020/12/27 03:25:25;;;;;;;8.23;6.03;;;;;;;5.84;77.16;94498.00;5054633;28;20198;-72
2020/12/27 03:27:51;;;;;;;9.40;6.20;;;;;;;5.89;76.58;94499.66;5054620;28;20211;-72
2020/12/27 03:30:17;;;;;;;9.17;6.30;;;;;;;6.19;75.08;94512.88;5054695;28;20167;-72
2020/12/27 03:32:42;;;;;;;10.33;6.70;;;;;;;6.28;74.67;94509.03;5054623;28;20586;-72
2020/12/27 03:35:08;;;;;;;12.17;7.00;;;;;;;6.06;75.85;94506.72;5054627;28;20191;-72
2020/12/27 03:37:35;;;;;;;10.60;6.83;;;;;;;6.13;75.06;94507.00;5054249;28;20200;-72
2020/12/27 03:40:03;;;;;;;12.70;7.37;;;;;;;6.06;75.76;94504.06;5054395;28;20654;-73
2020/12/27 03:42:29;;;;;;;13.10;8.00;;;;;;;6.16;76.06;94508.22;5054163;28;20685;-73
2020/12/27 03:44:54;;;;;;;12.90;7.57;;;;;;;6.13;75.20;94504.34;5054458;28;20574;-73
2020/12/27 03:47:20;;;;;;;14.33;8.23;;;;;;;6.15;76.02;94498.72;5054227;28;20640;-72
2020/12/27 03:49:45;;;;;;;13.03;8.03;;;;;;;6.16;75.39;94500.25;5054378;28;20614;-72
2020/12/27 03:52:11;;;;;;;14.27;7.23;;;;;;;6.07;75.79;94485.22;5053966;28;20527;-73
2020/12/27 03:54:36;;;;;;;18.33;8.37;;;;;;;6.07;76.29;94482.56;5054322;28;20209;-72
2020/12/27 03:57:02;;;;;;;10.40;7.50;;;;;;;6.18;76.01;94495.41;5054177;28;20242;-72
2020/12/27 03:59:27;;;;;;;17.80;9.07;;;;;;;6.22;76.09;94491.00;5053885;28;20196;-72
2020/12/27 04:01:53;;;;;;;13.57;7.93;;;;;;;5.98;76.57;94492.47;5054133;28;20642;-72
2020/12/27 04:04:18;;;;;;;15.27;8.00;;;;;;;6.17;76.05;94491.19;5053750;28;20175;-72
2020/12/27 04:06:44;;;;;;;14.47;8.60;;;;;;;6.22;76.12;94485.69;5054166;28;20272;-72
2020/12/27 04:09:09;;;;;;;14.20;8.80;;;;;;;6.39;75.13;94482.88;5053729;28;20647;-73
2020/12/27 04:11:35;;;;;;;16.77;8.63;;;;;;;6.20;75.90;94479.94;5053942;28;20171;-72
2020/12/27 04:14:01;;;;;;;12.27;7.60;;;;;;;6.06;76.34;94475.72;5035805;28;20180;-73
2020/12/27 04:16:27;;;;;;;12.57;8.10;;;;;;;5.99;76.92;94485.28;5053768;28;20639;-72
2020/12/27 04:18:52;;;;;;;15.73;8.90;;;;;;;6.23;75.98;94476.63;5052900;28;20253;-72
2020/12/27 04:21:18;;;;;;;13.53;8.30;;;;;;;6.44;75.29;94487.19;5053589;28;20199;-72
2020/12/27 04:23:43;;;;;;;15.43;8.33;;;;;;;6.19;76.00;94479.19;5035087;28;20651;-72
2020/12/27 04:26:12;;;;;;;22.33;8.37;;;;;;;6.15;76.25;94488.09;5053161;28;20176;-72
2020/12/27 04:28:38;;;;;;;15.85;9.20;;;;;;;5.97;77.30;94484.84;5036444;28;20207;-72
2020/12/27 04:31:03;;;;;;;15.00;8.67;;;;;;;6.20;76.75;94487.91;5035424;28;20207;-72
2020/12/27 04:33:29;;;;;;;12.57;8.00;;;;;;;6.22;76.36;94491.75;5053468;28;20499;-72
2020/12/27 04:35:54;;;;;;;13.27;8.77;;;;;;;6.09;77.00;94496.25;5053257;28;20218;-71
2020/12/27 04:38:20;;;;;;;13.33;8.73;;;;;;;6.11;77.42;94498.56;5053208;28;20195;-73
2020/12/27 04:40:45;;;;;;;15.30;9.10;;;;;;;6.19;77.10;94500.38;5053223;28;20210;-72
2020/12/27 04:43:11;;;;;;;16.97;8.73;;;;;;;6.29;76.27;94491.25;5019216;28;20218;-72
2020/12/27 04:45:36;;;;;;;14.20;8.53;;;;;;;6.20;76.48;94477.31;5018517;28;20269;-72
2020/12/27 04:48:02;;;;;;;20.67;10.30;;;;;;;6.37;75.80;94487.72;5053065;28;20222;-73
2020/12/27 04:50:27;;;;;;;15.20;8.43;;;;;;;6.41;75.92;94488.63;5035601;28;20218;-72
2020/12/27 04:52:53;;;;;;;14.63;8.97;;;;;;;6.35;76.77;94485.41;5018734;28;20203;-71
2020/12/27 04:55:19;;;;;;;14.83;8.53;;;;;;;6.18;77.46;94495.41;5035310;28;20692;-71
2020/12/27 04:57:46;;;;;;;13.77;7.37;;;;;;;6.02;78.20;94487.28;5052699;28;20740;-72
2020/12/27 05:00:12;;;;;;;14.33;7.73;;;;;;;6.15;78.36;94478.28;5018980;28;20581;-72
2020/12/27 05:02:37;;;;;;;12.87;7.10;;;;;;;6.29;77.26;94491.25;5034942;28;20596;-72
2020/12/27 05:05:12;;;;;;;18.37;7.23;;;;;;;6.40;77.51;94489.75;5052951;28;20643;-73
2020/12/27 05:07:40;;;;;;;11.95;7.55;;;;;;;6.25;77.92;94490.34;5052537;28;20267;-72
2020/12/27 05:10:05;;;;;;;12.43;6.47;;;;;;;6.23;77.85;94480.09;5052837;28;20237;-71
2020/12/27 05:12:31;;;;;;;11.27;6.63;;;;;;;6.45;77.37;94478.13;5052465;28;20996;-71
2020/12/27 05:14:57;;;;;;;12.83;6.40;;;;;;;6.29;77.61;94467.41;5018472;28;20246;-72
2020/12/27 05:17:22;;;;;;;9.40;5.73;;;;;;;6.30;77.47;94482.97;5052481;28;20199;-73
2020/12/27 05:19:48;;;;;;;8.97;5.87;;;;;;;6.28;78.38;94477.19;5052409;28;20203;-71
2020/12/27 05:22:14;;;;;;;9.23;5.40;;;;;;;6.44;77.45;94482.66;5052528;28;20204;-72
2020/12/27 05:24:40;;;;;;;8.07;5.17;;;;;;;6.56;76.13;94482.69;5052282;28;20175;-72
2020/12/27 05:27:08;;;;;;;8.63;5.33;;;;;;;6.34;77.78;94494.47;5052316;28;20633;-71
2020/12/27 05:29:35;;;;;;;8.77;5.23;;;;;;;6.40;77.52;94483.63;5034558;28;20322;-72
2020/12/27 05:32:00;;;;;;;7.70;4.67;;;;;;;6.48;76.74;94482.78;5052219;28;20586;-73
2020/12/27 05:34:27;;;;;;;8.43;4.87;;;;;;;6.48;77.31;94482.78;5052436;28;20593;-72
2020/12/27 05:36:56;;;;;;;7.93;5.00;;;;;;;6.46;77.15;94493.75;5052280;28;20199;-73
2020/12/27 05:39:21;;;;;;;6.53;4.07;;;;;;;6.46;77.14;94485.00;5052210;28;20593;-72
2020/12/27 05:41:47;;;;;;;7.27;4.13;;;;;;;6.56;76.98;94480.03;5052356;28;20183;-71
2020/12/27 05:44:12;;;;;;;14.50;4.50;;;;;;;6.53;77.15;94466.66;5052241;28;20198;-71
2020/12/27 05:46:38;;;;;;;21.93;9.37;;;;;;;6.48;77.46;94464.22;5017507;28;20191;-72
2020/12/27 05:49:03;;;;;;;10.47;4.20;;;;;;;6.66;76.85;94480.72;5052142;28;20176;-72
2020/12/27 05:51:29;;;;;;;11.73;3.73;;;;;;;6.41;77.62;94474.59;5051859;28;20270;-72
2020/12/27 05:53:54;;;;;;;8.70;4.47;;;;;;;6.24;77.90;94452.47;5009816;28;20231;-72
2020/12/27 05:56:20;;;;;;;7.67;3.87;;;;;;;6.43;77.30;94470.50;5014140;28;20203;-72
2020/12/27 05:58:46;;;;;;;6.90;3.93;;;;;;;6.42;77.58;94466.31;5031952;28;20651;-72
2020/12/27 06:01:23;;;;;;;5.37;3.90;;;;;;;6.36;78.09;94462.31;5031494;28;20583;-73
2020/12/27 06:03:57;;;;;;;6.10;4.53;;;;;;;6.30;78.67;94458.34;5031819;28;20647;-71
2020/12/27 06:07:03;;;;;;;5.87;3.80;;;;;;;6.30;78.83;94463.63;5014327;28;21052;-73
2020/12/27 06:09:54;;;;;;;4.83;3.47;;;;;;;6.30;78.53;94469.72;5031469;28;20603;-73
2020/12/27 06:12:21;;;;;;;5.83;3.57;;;;;;;6.29;78.54;94460.22;5013714;28;21052;-73
2020/12/27 06:15:08;;;;;;;4.83;3.40;;;;;;;6.35;78.18;94461.56;5031534;28;20598;-72
2020/12/27 06:17:49;;;;;;;6.60;3.60;;;;;;;6.33;78.50;94469.03;5031594;28;21051;-72
2020/12/27 06:20:17;;;;;;;6.27;4.00;;;;;;;6.22;78.28;94453.88;5031540;28;20621;-72
2020/12/27 06:22:43;;;;;;;7.00;4.43;;;;;;;6.24;78.66;94467.59;5031629;28;20682;-72
2020/12/27 06:25:08;;;;;;;6.87;4.10;;;;;;;6.10;79.09;94463.34;5031391;28;20582;-72
2020/12/27 06:27:33;;;;;;;6.77;3.77;;;;;;;6.14;79.32;94470.66;5031616;28;20212;-72
2020/12/27 06:30:04;;;;;;;5.90;3.93;;;;;;;6.15;79.44;94461.59;5031442;28;20211;-73
2020/12/27 06:32:31;;;;;;;8.33;3.87;;;;;;;6.26;78.80;94465.38;5014307;28;20176;-72
2020/12/27 06:34:57;;;;;;;7.60;3.87;;;;;;;6.20;78.93;94475.41;5013807;28;20602;-72
2020/12/27 06:37:22;;;;;;;8.10;3.70;;;;;;;6.14;79.05;94475.97;5026056;28;20624;-72
2020/12/27 06:39:48;;;;;;;11.43;4.03;;;;;;;6.15;78.95;94472.97;5011235;28;20173;-71
2020/12/27 06:42:18;;;;;;;8.50;4.30;;;;;;;5.96;79.31;94435.59;5011345;28;20181;-72
2020/12/27 06:44:47;;;;;;;6.07;3.90;;;;;;;6.00;79.34;94453.13;5011444;28;20208;-72
2020/12/27 06:47:13;;;;;;;5.33;3.50;;;;;;;6.17;79.04;94448.78;4994548;28;20568;-72
2020/12/27 06:49:39;;;;;;;6.17;4.03;;;;;;;6.23;78.94;94442.97;5011044;28;20587;-72
2020/12/27 06:52:31;;;;;;;8.20;4.07;;;;;;;6.25;79.29;94461.19;4981998;28;20611;-72
2020/12/27 06:54:56;;;;;;;9.85;4.57;;;;;;;6.16;78.72;94453.31;4985704;28;20185;-72
2020/12/27 06:57:43;;;;;;;6.07;4.17;;;;;;;6.11;79.21;94466.75;5010132;28;20255;-72
2020/12/27 07:00:20;;;;;;;6.45;4.18;;;;;;;6.10;79.00;94462.56;5008257;28;20239;-73
2020/12/27 07:02:46;;;;;;;11.25;4.10;;;;;;;6.04;79.36;94463.88;5008556;28;20267;-73
2020/12/27 07:05:30;;;;;;;7.83;4.23;;;;;;;6.06;79.52;94454.50;5009858;28;20231;-72
2020/12/27 07:07:56;;;;;;;7.07;4.03;;;;;;;6.13;79.20;94474.41;4991706;28;20181;-73
2020/12/27 07:10:23;;;;;;;7.77;4.10;;;;;;;6.18;79.10;94477.63;4991549;28;20967;-73
2020/12/27 07:12:48;;;;;;;7.27;4.57;;;;;;;6.13;79.03;94469.13;4974024;28;20192;-73
2020/12/27 07:15:14;;;;;;;6.50;4.80;;;;;;;6.17;79.07;94451.44;4991593;28;20581;-73
2020/12/27 07:17:41;;;;;;;8.43;4.73;;;;;;;6.21;79.04;94461.06;4974292;28;20201;-73
2020/12/27 07:20:15;;;;;;;7.93;5.03;;;;;;;6.12;79.77;94464.88;4991545;28;20584;-72
2020/12/27 07:22:42;;;;;;;7.47;4.67;;;;;;;6.16;78.89;94460.50;4967986;28;20617;-72
2020/12/27 07:25:13;;;;;;;7.87;4.43;;;;;;;6.26;79.24;94457.44;4991318;28;21088;-73
2020/12/27 07:27:39;;;;;;;8.73;5.10;;;;;;;6.12;79.21;94451.63;4974121;28;20659;-73
2020/12/27 07:30:05;;;;;;;11.50;5.33;;;;;;;6.05;79.87;94445.00;4991435;28;20720;-72
2020/12/27 07:32:31;;;;;;;11.43;5.43;;;;;;;5.98;79.67;94468.59;4974486;28;20680;-73
2020/12/27 07:34:57;;;;;;;12.17;5.37;;;;;;;5.99;79.93;94446.28;4958230;28;20178;-72
2020/12/27 07:37:23;;;;;;;9.53;5.47;;;;;;;6.09;80.09;94440.59;4991284;28;21183;-75
2020/12/27 07:39:55;;;;;;;8.97;5.47;;;;;;;6.07;80.28;94450.75;4991310;28;20166;-73
2020/12/27 07:42:24;;;;;;;14.73;5.30;;;;;;;6.05;80.11;94460.88;4991331;28;20265;-73
2020/12/27 07:44:49;;;;;;;6.23;4.90;;;;;;;6.19;79.78;94451.91;4991218;28;20659;-72
2020/12/27 07:47:15;;;;;;;8.57;5.30;;;;;;;6.13;79.45;94405.50;4991459;28;21041;-73
2020/12/27 07:49:40;;;;;;;7.37;4.77;;;;;;;6.49;78.87;94434.72;4991579;28;20660;-72
2020/12/27 07:52:06;;;;;;;8.63;4.97;;;;;;;6.25;78.63;94413.47;4991260;28;20672;-73
2020/12/27 07:54:31;;;;;;;8.03;5.07;;;;;;;6.53;78.51;94445.44;4994627;28;20647;-73
2020/12/27 07:56:57;;;;;;;8.93;4.93;;;;;;;6.52;78.47;94459.81;4994532;28;20300;-73
2020/12/27 07:59:22;;;;;;;7.57;4.53;;;;;;;6.63;78.09;94459.06;4977324;28;20221;-73
2020/12/27 08:01:48;;;;;;;8.67;4.53;;;;;;;6.64;78.11;94449.22;4994550;28;20169;-73
2020/12/27 08:04:13;;;;;;;11.07;4.87;;;;;;;6.69;77.74;94443.72;4990565;28;20178;-73
2020/12/27 08:06:43;;;;;;;7.97;4.60;;;;;;;6.73;77.85;94455.19;4961100;28;20173;-73
2020/12/27 08:09:13;;;;;;;10.77;4.97;;;;;;;6.74;77.93;94445.38;4994865;28;20202;-73
2020/12/27 08:11:42;;;;;;;8.53;4.93;;;;;;;6.42;77.69;94400.00;4994213;28;20619;-73
2020/12/27 08:14:08;;;;;;;6.63;5.07;;;;;;;6.48;77.84;94411.94;4994764;28;20608;-73
2020/12/27 08:16:38;;;;;;;7.43;4.37;;;;;;;6.70;78.19;94436.53;4976800;28;20595;-73
2020/12/27 08:19:07;;;;;;;9.33;5.10;;;;;;;6.56;78.71;94408.41;4994513;28;20627;-73
2020/12/27 08:21:37;;;;;;;7.70;4.67;;;;;;;6.80;78.11;94415.63;4977111;28;20954;-73
2020/12/27 08:24:04;;;;;;;5.17;4.00;;;;;;;6.72;78.53;94423.69;4976941;28;20596;-73
2020/12/27 08:26:31;;;;;;;8.17;4.43;;;;;;;6.68;79.32;94410.31;4994442;28;21100;-73
2020/12/27 08:29:15;;;;;;;7.60;4.23;;;;;;;6.58;79.83;94402.78;4994039;28;20611;-73
2020/12/27 08:31:41;;;;;;;7.83;4.47;;;;;;;6.79;78.68;94400.00;4994096;28;20584;-73
2020/12/27 08:34:12;;;;;;;5.07;4.00;;;;;;;6.85;78.52;94409.34;4994262;28;20580;-73
2020/12/27 08:36:38;;;;;;;6.13;3.90;;;;;;;6.81;78.43;94413.75;4993916;28;20589;-73
2020/12/27 08:39:09;;;;;;;7.40;4.43;;;;;;;6.77;78.51;94408.31;4976699;28;20620;-73
2020/12/27 08:41:37;;;;;;;7.63;4.30;;;;;;;6.89;79.35;94413.63;4977570;28;20568;-73
2020/12/27 08:44:07;;;;;;;9.43;4.30;;;;;;;6.94;78.50;94412.63;4993851;28;21166;-73
2020/12/27 08:46:34;;;;;;;6.27;3.83;;;;;;;7.08;77.85;94402.44;4976821;28;21154;-73
2020/12/27 08:49:20;;;;;;;6.70;4.30;;;;;;;7.08;78.01;94402.44;4993663;28;20927;-73
2020/12/27 08:51:45;;;;;;;10.90;4.37;;;;;;;6.94;78.74;94407.31;5010736;28;20596;-72
2020/12/27 08:54:11;;;;;;;7.37;4.37;;;;;;;7.11;79.07;94401.00;4974798;28;20648;-73
2020/12/27 08:56:37;;;;;;;12.83;4.63;;;;;;;7.12;78.42;94384.72;4995171;28;20180;-72
2020/12/27 08:59:03;;;;;;;6.67;4.37;;;;;;;7.34;77.90;94390.66;5028405;28;21159;-73
2020/12/27 09:01:29;;;;;;;6.93;4.50;;;;;;;7.42;77.99;94400.41;5026110;28;20657;-73
2020/12/27 09:03:55;;;;;;;8.83;4.53;;;;;;;7.17;78.30;94386.38;5031381;28;20187;-72
2020/12/27 09:06:21;;;;;;;6.13;4.00;;;;;;;7.37;78.09;94403.28;5032418;28;21200;-73
2020/12/27 09:08:46;;;;;;;5.93;4.13;;;;;;;7.37;77.50;94398.75;5031984;28;20176;-73
2020/12/27 09:11:12;;;;;;;6.13;3.57;;;;;;;7.30;77.61;94405.75;5032956;28;20172;-73
2020/12/27 09:13:39;;;;;;;4.97;3.80;;;;;;;7.36;77.65;94404.41;5032764;28;20203;-73
2020/12/27 09:16:04;;;;;;;5.20;3.03;;;;;;;7.20;77.81;94380.41;5015190;28;20172;-73
2020/12/27 09:18:31;;;;;;;5.10;2.90;;;;;;;7.33;77.76;94397.84;5031782;28;20681;-73
2020/12/27 09:21:01;;;;;;;4.30;3.13;;;;;;;7.26;78.08;94375.66;5032582;28;20222;-72
2020/12/27 09:23:27;;;;;;;5.70;3.30;;;;;;;7.35;77.49;94390.34;5032431;28;20678;-72
2020/12/27 09:26:13;;;;;;;7.57;3.37;;;;;;;7.24;78.25;94378.66;5016952;28;20655;-71
2020/12/27 09:28:39;;;;;;;6.03;3.27;;;;;;;7.38;77.85;94379.03;5023644;28;20204;-71
2020/12/27 09:31:12;;;;;;;4.53;2.70;;;;;;;7.37;77.54;94352.81;5032271;28;20618;-71
2020/12/27 09:33:47;;;;;;;5.93;3.63;;;;;;;7.20;78.19;94361.81;5029002;28;20644;-71
2020/12/27 09:36:13;;;;;;;3.80;2.80;;;;;;;7.34;77.90;94356.13;5012403;28;20594;-71
2020/12/27 09:38:40;;;;;;;4.63;2.83;;;;;;;7.39;77.52;94345.28;5013611;28;20631;-72
2020/12/27 09:41:10;;;;;;;3.27;2.50;;;;;;;7.49;77.18;94333.41;5032181;28;20206;-71
2020/12/27 09:43:51;;;;;;;2.63;2.30;;;;;;;7.48;77.73;94332.63;5025784;28;20567;-71
2020/12/27 09:46:42;;;;;;;2.70;2.50;;;;;;;7.51;77.20;94342.56;4991256;28;20616;-71
2020/12/27 09:49:29;;;;;;;2.97;2.20;;;;;;;7.58;76.93;94337.47;5016346;28;21184;-71
2020/12/27 09:52:08;;;;;;;5.80;2.73;;;;;;;7.49;77.65;94331.53;5011337;28;20587;-71
2020/12/27 09:54:34;;;;;;;6.40;2.67;;;;;;;7.57;77.35;94327.94;5012327;28;20974;-72
2020/12/27 09:57:12;;;;;;;2.53;2.10;;;;;;;7.65;76.73;94327.03;5011738;28;20670;-71
2020/12/27 09:59:38;;;;;;;2.73;2.03;;;;;;;7.75;76.47;94319.69;5019104;28;20579;-71
2020/12/27 10:02:04;;;;;;;3.10;2.47;;;;;;;7.82;75.97;94327.84;5014166;28;20569;-71
2020/12/27 10:04:30;;;;;;;3.80;2.10;;;;;;;7.59;77.08;94309.00;5007995;28;20280;-71
2020/12/27 10:06:55;;;;;;;2.83;2.07;;;;;;;7.62;77.49;94308.31;5011344;28;20223;-71
2020/12/27 10:09:21;;;;;;;3.33;2.20;;;;;;;7.73;76.39;94317.34;5011775;28;20212;-72
2020/12/27 10:11:46;;;;;;;5.20;2.13;;;;;;;7.69;77.65;94321.81;5012159;28;20208;-72
2020/12/27 10:14:12;;;;;;;2.90;1.87;;;;;;;7.60;78.33;94316.63;5011818;28;20173;-72
2020/12/27 10:16:37;;;;;;;3.07;2.00;;;;;;;7.67;77.62;94306.19;5006449;28;20239;-71
2020/12/27 10:19:03;;;;;;;3.00;1.83;;;;;;;7.63;78.76;94313.31;5011882;28;20600;-71
2020/12/27 10:21:28;;;;;;;2.90;1.80;;;;;;;7.84;77.29;94320.28;5011837;28;20200;-71
2020/12/27 10:23:53;;;;;;;6.03;2.10;;;;;;;7.91;76.63;94315.13;5024181;28;20172;-71
2020/12/27 10:26:19;;;;;;;3.80;2.33;;;;;;;7.80;76.33;94311.44;5030758;28;20176;-71
2020/12/27 10:28:45;;;;;;;3.50;2.30;;;;;;;7.88;75.86;94310.53;5031183;28;20630;-72
2020/12/27 10:31:10;;;;;;;2.30;1.67;;;;;;;7.92;75.96;94290.13;5031176;28;20203;-72
2020/12/27 10:33:36;;;;;;;2.63;2.10;;;;;;;7.84;76.56;94277.75;5031292;28;20631;-71
2020/12/27 10:36:02;;;;;;;2.17;1.97;;;;;;;8.00;76.05;94285.75;5031056;28;20251;-72
2020/12/27 10:38:27;;;;;;;1.80;1.70;;;;;;;7.88;75.80;94275.97;5031118;28;20208;-71
2020/12/27 10:40:53;;;;;;;2.37;1.97;;;;;;;7.89;76.07;94278.28;5031117;28;20172;-71
2020/12/27 10:43:19;;;;;;;4.33;2.10;;;;;;;8.01;75.47;94271.34;5016640;28;20571;-71
2020/12/27 10:45:44;;;;;;;2.00;1.80;;;;;;;7.89;75.50;94269.53;5011335;28;20175;-71
2020/12/27 10:48:10;;;;;;;2.83;2.07;;;;;;;7.76;76.32;94260.09;4994192;28;20583;-72
2020/12/27 10:50:40;;;;;;;3.40;2.70;;;;;;;7.96;76.09;94262.50;5011356;28;20255;-73
2020/12/27 10:53:06;;;;;;;3.17;2.37;;;;;;;7.99;74.81;94247.00;5011356;28;20177;-72
2020/12/27 10:55:32;;;;;;;3.67;2.10;;;;;;;7.93;75.04;94228.63;5011750;28;21002;-72
2020/12/27 10:57:57;;;;;;;4.27;1.90;;;;;;;8.00;74.68;94243.97;5011421;28;20671;-72
2020/12/27 11:00:23;;;;;;;3.07;2.00;;;;;;;7.85;75.17;94242.09;5011518;28;20256;-71
2020/12/27 11:02:48;;;;;;;4.20;2.23;;;;;;;7.87;74.88;94216.72;5011241;28;20169;-72
2020/12/27 11:05:15;;;;;;;3.07;1.90;;;;;;;7.79;75.02;94203.59;5011395;28;20177;-72
2020/12/27 11:07:40;;;;;;;4.47;2.00;;;;;;;7.89;74.58;94230.44;5010267;28;20177;-72
2020/12/27 11:10:06;;;;;;;1.90;1.70;;;;;;;7.86;74.80;94222.38;5011148;28;20587;-72
2020/12/27 11:12:32;;;;;;;3.27;2.20;;;;;;;7.85;75.19;94208.28;4993753;28;20774;-71
2020/12/27 11:14:57;;;;;;;3.77;2.17;;;;;;;7.79;74.95;94200.94;5010286;28;20197;-71
2020/12/27 11:17:23;;;;;;;5.43;2.60;;;;;;;7.83;74.59;94201.78;5007123;28;20228;-72
2020/12/27 11:19:48;;;;;;;3.17;1.90;;;;;;;7.81;75.52;94198.72;5011335;28;20192;-72
2020/12/27 11:22:14;;;;;;;3.10;1.70;;;;;;;7.80;75.05;94192.63;5011305;28;20180;-72
2020/12/27 11:24:39;;;;;;;2.83;1.73;;;;;;;7.72;74.98;94172.31;5010855;28;20192;-72
2020/12/27 11:27:05;;;;;;;2.60;1.90;;;;;;;7.81;74.39;94172.91;5032465;28;20250;-72
2020/12/27 11:29:31;;;;;;;6.50;2.30;;;;;;;7.83;75.24;94161.94;5034444;28;20275;-72
2020/12/27 11:31:57;;;;;;;2.70;1.90;;;;;;;7.74;74.61;94159.44;5034670;28;20251;-72
2020/12/27 11:34:25;;;;;;;2.60;2.00;;;;;;;7.78;74.80;94152.31;5034433;28;20172;-72
2020/12/27 11:36:50;;;;;;;2.70;2.50;;;;;;;7.89;74.82;94131.31;5034492;28;20610;-71
2020/12/27 11:39:16;;;;;;;3.23;2.17;;;;;;;8.00;74.06;94127.00;5034033;28;20610;-72
2020/12/27 11:41:41;;;;;;;2.93;2.20;;;;;;;7.95;74.13;94121.94;5034457;28;20909;-71